메인 페이지
METAR-TAF:

METAR-TAF

공항 :

Fort Sill, 오클라호마, 미국

위도: 34-36N, 경도: 098-24W, 고도: 362m

현재 날씨관측

예보는 56분 전, 17:56시(UTC)에 발표되었습니다.
8kt
온도 13°C
습도 44%
기압 1023 hPa
시정: 16.1km
맑음

METAR: KFSI 161756Z AUTO 01008KT 10SM CLR 13/01 A3020 RMK AO2 SLP228 T01260007 10126 20011 58002 $

시각: 12:52 (18:52 UTC)

예보

예보는 20 시간 52분 전, 22:00시(UTC)에 발표되었습니다.
예보 대상 시간: 14일 22시부터 16일 04시까지 (UTC)
북북서12kt, 순간 최대 풍속 25kt
시정 10km 이상
맑음
전환 중
14일 23시부터 14일 24시까지 (UTC)
북서9kt
시정 10km 이상
맑음
전환 중
15일 20시부터 15일 21시까지 (UTC)
남남서6kt
시정: 1714m
맑음

TAF: KFSI 142200Z 1422/1604 34012G25KT 9999 SKC QNH3012INS BECMG 1423/1424 32009KT 9999 SKC QNH3014INS BECMG 1520/1521 20006KT 9999 SKC QNH3016INS TX16/1522Z TNM03/1512Z LAST NO AMDS AFT 1504 NEXT 1714

4,000개 이상의 공항 관측 자료 및 예보 (METAR 및 TAF 보고).

지도상에서 검색 가능한 기상관측소가 노란 점과 빨간 점으로 표시되어 있습니다.

기상관측소 명을 보려면 표시 위로 마우스를 이동하세요.

날씨 관측과 예보를 보려면 클릭하세요.

지도 변경 : 확대하려면 엑스 표시가 있는 녹색 버튼, 축소하려면 빼기 표시가 있는 녹색 버튼, 다음 페이지의 지도를 보려면 녹색 화살표를 클릭하세요.


METAR-TAF: